sensor_id;sensor_type;location;lat;lon;timestamp;pressure;altitude;pressure_sealevel;temperature;humidity
55685;BME280;41883;49.544;8.646;2023-09-12T00:08:32;99955.94;;;19.53;nan
55685;BME280;41883;49.544;8.646;2023-09-12T00:11:06;99920.94;;;19.48;nan
55685;BME280;41883;49.544;8.646;2023-09-12T00:18:32;99957.44;;;19.31;nan
55685;BME280;41883;49.544;8.646;2023-09-12T00:20:59;99928.63;;;19.26;nan
55685;BME280;41883;49.544;8.646;2023-09-12T00:23:25;99956.69;;;19.24;nan
55685;BME280;41883;49.544;8.646;2023-09-12T00:25:51;99952.16;;;19.24;nan
55685;BME280;41883;49.544;8.646;2023-09-12T00:28:20;99946.56;;;19.26;nan
55685;BME280;41883;49.544;8.646;2023-09-12T00:30:46;99922.66;;;19.24;nan
55685;BME280;41883;49.544;8.646;2023-09-12T00:38:01;99948.41;;;19.25;nan
55685;BME280;41883;49.544;8.646;2023-09-12T00:40:27;99954.97;;;19.29;nan
55685;BME280;41883;49.544;8.646;2023-09-12T00:45:17;99929.19;;;19.47;nan
55685;BME280;41883;49.544;8.646;2023-09-12T00:47:43;99890.38;;;19.49;nan
55685;BME280;41883;49.544;8.646;2023-09-12T00:57:26;99926.75;;;19.27;nan
55685;BME280;41883;49.544;8.646;2023-09-12T01:02:18;99911.81;;;19.19;nan
55685;BME280;41883;49.544;8.646;2023-09-12T01:04:44;99899.81;;;19.22;nan
55685;BME280;41883;49.544;8.646;2023-09-12T01:07:09;99930.09;;;19.22;nan
55685;BME280;41883;49.544;8.646;2023-09-12T01:12:00;99924.06;;;19.27;nan
55685;BME280;41883;49.544;8.646;2023-09-12T01:14:30;99908.34;;;19.30;nan
55685;BME280;41883;49.544;8.646;2023-09-12T01:16:56;99913.28;;;19.34;nan
55685;BME280;41883;49.544;8.646;2023-09-12T01:19:21;100015.97;;;19.34;nan
55685;BME280;41883;49.544;8.646;2023-09-12T01:22:07;99888.91;;;19.35;nan
55685;BME280;41883;49.544;8.646;2023-09-12T01:27:47;99980.81;;;19.42;nan
55685;BME280;41883;49.544;8.646;2023-09-12T01:37:32;99874.69;;;19.53;nan
55685;BME280;41883;49.544;8.646;2023-09-12T01:39:57;99995.50;;;19.58;nan
55685;BME280;41883;49.544;8.646;2023-09-12T01:42:24;99923.81;;;19.65;nan
55685;BME280;41883;49.544;8.646;2023-09-12T01:47:21;99863.59;;;19.80;nan
55685;BME280;41883;49.544;8.646;2023-09-12T01:49:52;99875.16;;;19.80;nan
55685;BME280;41883;49.544;8.646;2023-09-12T01:57:11;99889.53;;;19.86;nan
55685;BME280;41883;49.544;8.646;2023-09-12T01:59:37;99877.88;;;19.92;nan
55685;BME280;41883;49.544;8.646;2023-09-12T02:04:28;99860.19;;;20.03;nan
55685;BME280;41883;49.544;8.646;2023-09-12T02:09:18;99962.47;;;19.94;nan
55685;BME280;41883;49.544;8.646;2023-09-12T02:16:36;99865.34;;;19.74;nan
55685;BME280;41883;49.544;8.646;2023-09-12T02:19:05;99920.72;;;19.68;nan
55685;BME280;41883;49.544;8.646;2023-09-12T02:21:31;99847.78;;;19.60;nan
55685;BME280;41883;49.544;8.646;2023-09-12T02:23:56;99858.13;;;19.56;nan
55685;BME280;41883;49.544;8.646;2023-09-12T02:33:40;99922.50;;;19.38;nan
55685;BME280;41883;49.544;8.646;2023-09-12T02:38:31;99874.69;;;19.16;nan
55685;BME280;41883;49.544;8.646;2023-09-12T02:40:56;99860.41;;;19.04;nan
55685;BME280;41883;49.544;8.646;2023-09-12T02:45:47;99846.94;;;18.92;nan
55685;BME280;41883;49.544;8.646;2023-09-12T02:50:37;99854.03;;;18.86;nan
55685;BME280;41883;49.544;8.646;2023-09-12T02:55:28;99851.28;;;18.68;nan
55685;BME280;41883;49.544;8.646;2023-09-12T03:05:10;99874.47;;;18.56;nan
55685;BME280;41883;49.544;8.646;2023-09-12T03:22:06;99867.78;;;18.90;nan
55685;BME280;41883;49.544;8.646;2023-09-12T03:31:48;99894.91;;;18.75;nan
55685;BME280;41883;49.544;8.646;2023-09-12T03:34:13;99863.22;;;18.72;nan
55685;BME280;41883;49.544;8.646;2023-09-12T03:39:04;99812.03;;;18.80;nan
55685;BME280;41883;49.544;8.646;2023-09-12T03:41:33;99798.44;;;18.82;nan
55685;BME280;41883;49.544;8.646;2023-09-12T03:43:59;99846.50;;;18.77;nan
55685;BME280;41883;49.544;8.646;2023-09-12T04:00:56;99858.41;;;18.81;nan
55685;BME280;41883;49.544;8.646;2023-09-12T04:03:21;99924.13;;;18.83;nan
55685;BME280;41883;49.544;8.646;2023-09-12T04:05:47;99837.50;;;18.89;nan
55685;BME280;41883;49.544;8.646;2023-09-12T04:10:38;99833.19;;;19.07;nan
55685;BME280;41883;49.544;8.646;2023-09-12T04:15:28;99882.53;;;19.18;nan
55685;BME280;41883;49.544;8.646;2023-09-12T04:27:34;99898.69;;;19.29;nan
55685;BME280;41883;49.544;8.646;2023-09-12T04:32:25;99893.09;;;19.31;nan
55685;BME280;41883;49.544;8.646;2023-09-12T04:34:50;99903.00;;;19.30;nan
55685;BME280;41883;49.544;8.646;2023-09-12T04:37:16;99879.47;;;19.33;nan
55685;BME280;41883;49.544;8.646;2023-09-12T04:42:06;99862.28;;;19.22;nan
55685;BME280;41883;49.544;8.646;2023-09-12T04:47:01;99900.03;;;19.20;nan
55685;BME280;41883;49.544;8.646;2023-09-12T04:49:28;99891.63;;;19.17;nan
55685;BME280;41883;49.544;8.646;2023-09-12T04:51:53;99897.41;;;19.14;nan
55685;BME280;41883;49.544;8.646;2023-09-12T04:56:43;99894.06;;;19.18;nan
55685;BME280;41883;49.544;8.646;2023-09-12T04:59:09;99912.97;;;19.23;nan
55685;BME280;41883;49.544;8.646;2023-09-12T05:06:24;99895.06;;;19.24;nan
55685;BME280;41883;49.544;8.646;2023-09-12T05:08:50;99901.00;;;19.26;nan
55685;BME280;41883;49.544;8.646;2023-09-12T05:11:15;99921.19;;;19.28;nan
55685;BME280;41883;49.544;8.646;2023-09-12T05:13:40;99939.09;;;19.28;nan
55685;BME280;41883;49.544;8.646;2023-09-12T05:18:31;99891.25;;;19.31;nan
55685;BME280;41883;49.544;8.646;2023-09-12T05:20:56;99891.84;;;19.34;nan
55685;BME280;41883;49.544;8.646;2023-09-12T05:23:22;99874.94;;;19.33;nan
55685;BME280;41883;49.544;8.646;2023-09-12T05:25:47;99888.09;;;19.35;nan
55685;BME280;41883;49.544;8.646;2023-09-12T05:30:41;99897.69;;;19.42;nan
55685;BME280;41883;49.544;8.646;2023-09-12T05:33:06;99900.38;;;19.42;nan
55685;BME280;41883;49.544;8.646;2023-09-12T05:35:32;99858.75;;;19.40;nan
55685;BME280;41883;49.544;8.646;2023-09-12T05:45:13;99906.03;;;19.52;nan
55685;BME280;41883;49.544;8.646;2023-09-12T05:54:57;99936.59;;;19.70;nan
55685;BME280;41883;49.544;8.646;2023-09-12T05:57:22;99936.25;;;19.78;nan
55685;BME280;41883;49.544;8.646;2023-09-12T05:59:48;99940.66;;;19.91;nan
55685;BME280;41883;49.544;8.646;2023-09-12T06:07:04;99931.66;;;20.27;nan
55685;BME280;41883;49.544;8.646;2023-09-12T06:09:29;99928.41;;;20.37;nan
55685;BME280;41883;49.544;8.646;2023-09-12T06:11:55;99930.38;;;20.42;nan
55685;BME280;41883;49.544;8.646;2023-09-12T06:14:20;99932.38;;;20.46;nan
55685;BME280;41883;49.544;8.646;2023-09-12T06:16:45;99931.47;;;20.52;nan
55685;BME280;41883;49.544;8.646;2023-09-12T06:19:10;99940.63;;;20.75;nan
55685;BME280;41883;49.544;8.646;2023-09-12T06:21:36;99946.81;;;21.11;nan
55685;BME280;41883;49.544;8.646;2023-09-12T06:24:08;99940.13;;;21.25;nan
55685;BME280;41883;49.544;8.646;2023-09-12T06:26:34;99938.84;;;21.16;nan
55685;BME280;41883;49.544;8.646;2023-09-12T06:29:00;99941.53;;;21.16;nan
55685;BME280;41883;49.544;8.646;2023-09-12T06:31:25;99942.13;;;21.06;nan
55685;BME280;41883;49.544;8.646;2023-09-12T06:33:50;99931.50;;;20.99;nan
55685;BME280;41883;49.544;8.646;2023-09-12T06:36:15;99925.09;;;21.00;nan
55685;BME280;41883;49.544;8.646;2023-09-12T06:38:40;99922.41;;;21.00;nan
55685;BME280;41883;49.544;8.646;2023-09-12T06:41:06;99923.69;;;21.10;nan
55685;BME280;41883;49.544;8.646;2023-09-12T06:43:31;99916.28;;;21.40;nan
55685;BME280;41883;49.544;8.646;2023-09-12T06:45:56;99931.38;;;21.70;nan
55685;BME280;41883;49.544;8.646;2023-09-12T06:48:21;99934.25;;;21.80;nan
55685;BME280;41883;49.544;8.646;2023-09-12T06:50:46;99943.19;;;21.81;nan
55685;BME280;41883;49.544;8.646;2023-09-12T06:53:11;99947.78;;;22.14;nan
55685;BME280;41883;49.544;8.646;2023-09-12T06:55:37;99963.06;;;22.71;nan
55685;BME280;41883;49.544;8.646;2023-09-12T06:58:02;99978.22;;;23.28;nan
55685;BME280;41883;49.544;8.646;2023-09-12T07:02:53;99980.38;;;23.70;nan
55685;BME280;41883;49.544;8.646;2023-09-12T07:05:18;99977.88;;;24.40;nan
55685;BME280;41883;49.544;8.646;2023-09-12T07:07:43;99975.13;;;24.99;nan
55685;BME280;41883;49.544;8.646;2023-09-12T07:10:09;99975.69;;;25.43;nan
55685;BME280;41883;49.544;8.646;2023-09-12T07:12:34;99994.47;;;25.76;nan
55685;BME280;41883;49.544;8.646;2023-09-12T07:14:59;99996.19;;;25.87;nan
55685;BME280;41883;49.544;8.646;2023-09-12T07:17:27;100006.22;;;25.97;nan
55685;BME280;41883;49.544;8.646;2023-09-12T07:19:52;99998.97;;;26.18;nan
55685;BME280;41883;49.544;8.646;2023-09-12T07:22:17;99998.72;;;26.40;nan
55685;BME280;41883;49.544;8.646;2023-09-12T07:24:42;100006.06;;;26.55;nan
55685;BME280;41883;49.544;8.646;2023-09-12T07:27:08;99997.41;;;26.78;nan
55685;BME280;41883;49.544;8.646;2023-09-12T07:29:33;99997.91;;;27.11;nan
55685;BME280;41883;49.544;8.646;2023-09-12T07:31:58;99981.28;;;27.38;nan
55685;BME280;41883;49.544;8.646;2023-09-12T07:34:23;100010.28;;;27.63;nan
55685;BME280;41883;49.544;8.646;2023-09-12T07:36:49;100008.81;;;27.91;nan
55685;BME280;41883;49.544;8.646;2023-09-12T07:39:16;100007.28;;;28.20;nan
55685;BME280;41883;49.544;8.646;2023-09-12T07:41:41;99995.72;;;28.38;nan
55685;BME280;41883;49.544;8.646;2023-09-12T07:44:06;99993.78;;;28.49;nan
55685;BME280;41883;49.544;8.646;2023-09-12T07:46:35;100011.72;;;28.84;nan
55685;BME280;41883;49.544;8.646;2023-09-12T07:49:01;100009.50;;;29.20;nan
55685;BME280;41883;49.544;8.646;2023-09-12T07:51:26;100007.31;;;29.47;nan
55685;BME280;41883;49.544;8.646;2023-09-12T07:53:51;100008.84;;;29.77;nan
55685;BME280;41883;49.544;8.646;2023-09-12T07:56:16;99987.91;;;29.72;nan
55685;BME280;41883;49.544;8.646;2023-09-12T07:58:41;99999.66;;;29.73;nan
55685;BME280;41883;49.544;8.646;2023-09-12T08:01:07;99997.41;;;29.99;nan
55685;BME280;41883;49.544;8.646;2023-09-12T08:03:36;100001.72;;;30.19;nan
55685;BME280;41883;49.544;8.646;2023-09-12T08:06:03;100004.97;;;30.21;nan
55685;BME280;41883;49.544;8.646;2023-09-12T08:08:28;100007.72;;;30.40;nan
55685;BME280;41883;49.544;8.646;2023-09-12T08:10:54;100013.69;;;30.75;nan
55685;BME280;41883;49.544;8.646;2023-09-12T08:13:19;100015.00;;;31.10;nan
55685;BME280;41883;49.544;8.646;2023-09-12T08:15:44;100005.47;;;31.40;nan
55685;BME280;41883;49.544;8.646;2023-09-12T08:18:10;100007.09;;;31.91;nan
55685;BME280;41883;49.544;8.646;2023-09-12T08:20:35;100017.66;;;32.34;nan
55685;BME280;41883;49.544;8.646;2023-09-12T08:23:00;100020.16;;;32.67;nan
55685;BME280;41883;49.544;8.646;2023-09-12T08:25:32;100011.38;;;33.02;nan
55685;BME280;41883;49.544;8.646;2023-09-12T08:27:58;100002.00;;;33.34;nan
55685;BME280;41883;49.544;8.646;2023-09-12T08:30:23;100014.34;;;33.54;nan
55685;BME280;41883;49.544;8.646;2023-09-12T08:32:48;100009.06;;;33.66;nan
55685;BME280;41883;49.544;8.646;2023-09-12T08:35:13;100010.38;;;33.77;nan
55685;BME280;41883;49.544;8.646;2023-09-12T08:37:42;100026.03;;;33.94;nan
55685;BME280;41883;49.544;8.646;2023-09-12T08:40:08;100013.34;;;34.24;nan
55685;BME280;41883;49.544;8.646;2023-09-12T08:42:38;100020.91;;;34.71;nan
55685;BME280;41883;49.544;8.646;2023-09-12T08:45:05;100015.78;;;35.08;nan
55685;BME280;41883;49.544;8.646;2023-09-12T08:47:31;100020.53;;;35.37;nan
55685;BME280;41883;49.544;8.646;2023-09-12T08:49:57;100015.34;;;35.44;nan
55685;BME280;41883;49.544;8.646;2023-09-12T08:52:23;100022.25;;;35.80;nan
55685;BME280;41883;49.544;8.646;2023-09-12T08:54:48;100019.19;;;36.11;nan
55685;BME280;41883;49.544;8.646;2023-09-12T08:57:13;100023.50;;;36.54;nan
55685;BME280;41883;49.544;8.646;2023-09-12T08:59:39;100019.44;;;36.73;nan
55685;BME280;41883;49.544;8.646;2023-09-12T09:02:05;100024.50;;;36.71;nan
55685;BME280;41883;49.544;8.646;2023-09-12T09:04:32;100021.84;;;36.74;nan
55685;BME280;41883;49.544;8.646;2023-09-12T09:06:58;100020.56;;;36.60;nan
55685;BME280;41883;49.544;8.646;2023-09-12T09:09:24;100014.88;;;36.56;nan
55685;BME280;41883;49.544;8.646;2023-09-12T09:11:49;100014.53;;;36.78;nan
55685;BME280;41883;49.544;8.646;2023-09-12T09:14:15;100017.63;;;36.89;nan
55685;BME280;41883;49.544;8.646;2023-09-12T09:16:40;100004.81;;;37.06;nan
55685;BME280;41883;49.544;8.646;2023-09-12T09:19:05;100009.09;;;37.28;nan
55685;BME280;41883;49.544;8.646;2023-09-12T09:21:34;99998.19;;;37.19;nan
55685;BME280;41883;49.544;8.646;2023-09-12T09:24:01;100006.44;;;37.07;nan
55685;BME280;41883;49.544;8.646;2023-09-12T09:26:40;100012.81;;;36.86;nan
55685;BME280;41883;49.544;8.646;2023-09-12T09:29:06;100019.53;;;37.10;nan
55685;BME280;41883;49.544;8.646;2023-09-12T09:31:32;100018.19;;;37.40;nan
55685;BME280;41883;49.544;8.646;2023-09-12T09:33:59;100011.75;;;37.61;nan
55685;BME280;41883;49.544;8.646;2023-09-12T09:36:24;100012.72;;;38.06;nan
55685;BME280;41883;49.544;8.646;2023-09-12T09:38:50;100010.09;;;38.25;nan
55685;BME280;41883;49.544;8.646;2023-09-12T09:41:16;100002.81;;;38.33;nan
55685;BME280;41883;49.544;8.646;2023-09-12T09:43:44;100003.84;;;38.40;nan
55685;BME280;41883;49.544;8.646;2023-09-12T09:46:14;100007.84;;;38.43;nan
55685;BME280;41883;49.544;8.646;2023-09-12T09:48:39;100003.41;;;38.66;nan
55685;BME280;41883;49.544;8.646;2023-09-12T09:51:13;100002.25;;;38.83;nan
55685;BME280;41883;49.544;8.646;2023-09-12T09:53:38;100001.53;;;38.86;nan
55685;BME280;41883;49.544;8.646;2023-09-12T09:56:08;100007.50;;;38.88;nan
55685;BME280;41883;49.544;8.646;2023-09-12T09:58:34;100000.63;;;38.82;nan
55685;BME280;41883;49.544;8.646;2023-09-12T10:00:59;99993.75;;;38.60;nan
55685;BME280;41883;49.544;8.646;2023-09-12T10:03:26;100003.41;;;38.82;nan
55685;BME280;41883;49.544;8.646;2023-09-12T10:05:53;100000.91;;;38.77;nan
55685;BME280;41883;49.544;8.646;2023-09-12T10:08:20;99999.22;;;38.88;nan
55685;BME280;41883;49.544;8.646;2023-09-12T10:10:46;99994.75;;;38.84;nan
55685;BME280;41883;49.544;8.646;2023-09-12T10:13:12;99990.28;;;38.79;nan
55685;BME280;41883;49.544;8.646;2023-09-12T10:15:39;99984.88;;;39.15;nan
55685;BME280;41883;49.544;8.646;2023-09-12T10:18:08;99977.50;;;39.03;nan
55685;BME280;41883;49.544;8.646;2023-09-12T10:20:35;99976.72;;;38.58;nan
55685;BME280;41883;49.544;8.646;2023-09-12T10:23:11;99975.19;;;37.64;nan
55685;BME280;41883;49.544;8.646;2023-09-12T10:25:39;99983.00;;;37.37;nan
55685;BME280;41883;49.544;8.646;2023-09-12T10:28:05;99977.38;;;38.11;nan
55685;BME280;41883;49.544;8.646;2023-09-12T10:30:31;99986.47;;;38.84;nan
55685;BME280;41883;49.544;8.646;2023-09-12T10:32:57;99978.97;;;39.32;nan
55685;BME280;41883;49.544;8.646;2023-09-12T10:35:22;99979.25;;;38.79;nan
55685;BME280;41883;49.544;8.646;2023-09-12T10:37:48;99980.28;;;38.02;nan
55685;BME280;41883;49.544;8.646;2023-09-12T10:40:14;99980.00;;;38.20;nan
55685;BME280;41883;49.544;8.646;2023-09-12T10:42:40;99985.56;;;38.80;nan
55685;BME280;41883;49.544;8.646;2023-09-12T10:45:06;99972.13;;;39.10;nan
55685;BME280;41883;49.544;8.646;2023-09-12T10:47:33;99976.47;;;39.27;nan
55685;BME280;41883;49.544;8.646;2023-09-12T10:49:58;99983.97;;;39.11;nan
55685;BME280;41883;49.544;8.646;2023-09-12T10:52:24;99983.59;;;39.28;nan
55685;BME280;41883;49.544;8.646;2023-09-12T10:54:50;99981.91;;;39.55;nan
55685;BME280;41883;49.544;8.646;2023-09-12T10:57:16;99983.34;;;39.33;nan
55685;BME280;41883;49.544;8.646;2023-09-12T11:02:28;99977.31;;;39.63;nan
55685;BME280;41883;49.544;8.646;2023-09-12T11:05:00;99983.41;;;38.01;nan
55685;BME280;41883;49.544;8.646;2023-09-12T11:12:41;99954.81;;;33.46;nan
55685;BME280;41883;49.544;8.646;2023-09-12T11:15:06;99960.00;;;32.76;nan
55685;BME280;41883;49.544;8.646;2023-09-12T11:17:36;99937.53;;;32.96;nan
55685;BME280;41883;49.544;8.646;2023-09-12T11:20:02;99957.38;;;34.90;nan
55685;BME280;41883;49.544;8.646;2023-09-12T11:22:34;99962.84;;;36.75;nan
55685;BME280;41883;49.544;8.646;2023-09-12T11:25:03;99959.59;;;38.24;nan
55685;BME280;41883;49.544;8.646;2023-09-12T11:27:31;99965.66;;;38.90;nan
55685;BME280;41883;49.544;8.646;2023-09-12T11:30:03;99953.34;;;39.51;nan
55685;BME280;41883;49.544;8.646;2023-09-12T11:32:32;99958.50;;;40.07;nan
55685;BME280;41883;49.544;8.646;2023-09-12T11:34:58;99962.72;;;40.01;nan
55685;BME280;41883;49.544;8.646;2023-09-12T11:37:25;99952.22;;;39.71;nan
55685;BME280;41883;49.544;8.646;2023-09-12T11:39:50;99958.38;;;39.65;nan
55685;BME280;41883;49.544;8.646;2023-09-12T11:42:17;99957.28;;;40.05;nan
55685;BME280;41883;49.544;8.646;2023-09-12T11:44:43;99953.06;;;39.76;nan
55685;BME280;41883;49.544;8.646;2023-09-12T11:47:09;99952.66;;;39.22;nan
55685;BME280;41883;49.544;8.646;2023-09-12T11:49:36;99949.16;;;38.46;nan
55685;BME280;41883;49.544;8.646;2023-09-12T11:52:02;99946.81;;;37.92;nan
55685;BME280;41883;49.544;8.646;2023-09-12T11:54:28;99942.97;;;37.68;nan
55685;BME280;41883;49.544;8.646;2023-09-12T11:56:54;99940.25;;;37.56;nan
55685;BME280;41883;49.544;8.646;2023-09-12T11:59:24;99947.47;;;36.87;nan
55685;BME280;41883;49.544;8.646;2023-09-12T12:01:49;99942.00;;;36.53;nan
55685;BME280;41883;49.544;8.646;2023-09-12T12:04:15;99933.22;;;36.27;nan
55685;BME280;41883;49.544;8.646;2023-09-12T12:06:40;99939.47;;;36.15;nan
55685;BME280;41883;49.544;8.646;2023-09-12T12:09:06;99944.31;;;35.76;nan
55685;BME280;41883;49.544;8.646;2023-09-12T12:11:31;99939.38;;;35.40;nan
55685;BME280;41883;49.544;8.646;2023-09-12T12:13:57;99941.88;;;35.24;nan
55685;BME280;41883;49.544;8.646;2023-09-12T12:16:22;99939.03;;;35.03;nan
55685;BME280;41883;49.544;8.646;2023-09-12T12:18:47;99933.25;;;34.96;nan
55685;BME280;41883;49.544;8.646;2023-09-12T12:21:12;99925.47;;;35.06;nan
55685;BME280;41883;49.544;8.646;2023-09-12T12:23:38;99917.38;;;35.10;nan
55685;BME280;41883;49.544;8.646;2023-09-12T12:26:05;99929.66;;;35.04;nan
55685;BME280;41883;49.544;8.646;2023-09-12T12:28:30;99924.63;;;34.76;nan
55685;BME280;41883;49.544;8.646;2023-09-12T12:30:56;99915.09;;;34.56;nan
55685;BME280;41883;49.544;8.646;2023-09-12T12:33:21;99927.25;;;34.46;nan
55685;BME280;41883;49.544;8.646;2023-09-12T12:35:46;99917.59;;;34.40;nan
55685;BME280;41883;49.544;8.646;2023-09-12T12:38:12;99915.03;;;34.35;nan
55685;BME280;41883;49.544;8.646;2023-09-12T12:40:38;99915.03;;;34.18;nan
55685;BME280;41883;49.544;8.646;2023-09-12T12:43:05;99907.78;;;34.04;nan
55685;BME280;41883;49.544;8.646;2023-09-12T12:45:31;99903.25;;;33.91;nan
55685;BME280;41883;49.544;8.646;2023-09-12T12:47:59;99912.13;;;33.88;nan
55685;BME280;41883;49.544;8.646;2023-09-12T12:50:25;99908.25;;;33.89;nan
55685;BME280;41883;49.544;8.646;2023-09-12T12:52:50;99906.16;;;33.95;nan
55685;BME280;41883;49.544;8.646;2023-09-12T12:55:16;99899.84;;;33.94;nan
55685;BME280;41883;49.544;8.646;2023-09-12T12:57:44;99899.22;;;33.80;nan
55685;BME280;41883;49.544;8.646;2023-09-12T13:00:10;99895.50;;;33.67;nan
55685;BME280;41883;49.544;8.646;2023-09-12T13:02:36;99890.34;;;33.57;nan
55685;BME280;41883;49.544;8.646;2023-09-12T13:05:01;99893.38;;;33.38;nan
55685;BME280;41883;49.544;8.646;2023-09-12T13:07:27;99889.94;;;33.15;nan
55685;BME280;41883;49.544;8.646;2023-09-12T13:09:52;99884.53;;;33.01;nan
55685;BME280;41883;49.544;8.646;2023-09-12T13:12:17;99873.03;;;32.73;nan
55685;BME280;41883;49.544;8.646;2023-09-12T13:14:43;99874.72;;;32.60;nan
55685;BME280;41883;49.544;8.646;2023-09-12T13:17:09;99860.28;;;32.46;nan
55685;BME280;41883;49.544;8.646;2023-09-12T13:19:34;99867.34;;;32.38;nan
55685;BME280;41883;49.544;8.646;2023-09-12T13:22:00;99864.59;;;32.38;nan
55685;BME280;41883;49.544;8.646;2023-09-12T13:24:25;99872.03;;;32.37;nan
55685;BME280;41883;49.544;8.646;2023-09-12T13:26:51;99863.59;;;32.25;nan
55685;BME280;41883;49.544;8.646;2023-09-12T13:29:16;99860.78;;;32.16;nan
55685;BME280;41883;49.544;8.646;2023-09-12T13:31:41;99864.75;;;32.10;nan
55685;BME280;41883;49.544;8.646;2023-09-12T13:34:06;99860.84;;;32.03;nan
55685;BME280;41883;49.544;8.646;2023-09-12T13:36:32;99861.47;;;32.00;nan
55685;BME280;41883;49.544;8.646;2023-09-12T13:38:57;99847.72;;;31.91;nan
55685;BME280;41883;49.544;8.646;2023-09-12T13:41:22;99854.53;;;31.80;nan
55685;BME280;41883;49.544;8.646;2023-09-12T13:43:48;99853.44;;;31.81;nan
55685;BME280;41883;49.544;8.646;2023-09-12T13:46:13;99853.56;;;31.76;nan
55685;BME280;41883;49.544;8.646;2023-09-12T13:48:38;99840.03;;;31.70;nan
55685;BME280;41883;49.544;8.646;2023-09-12T13:51:03;99835.22;;;31.76;nan
55685;BME280;41883;49.544;8.646;2023-09-12T13:53:29;99835.16;;;31.67;nan
55685;BME280;41883;49.544;8.646;2023-09-12T13:55:54;99835.47;;;31.66;nan
55685;BME280;41883;49.544;8.646;2023-09-12T13:58:22;99837.34;;;31.57;nan
55685;BME280;41883;49.544;8.646;2023-09-12T14:00:47;99833.88;;;31.51;nan
55685;BME280;41883;49.544;8.646;2023-09-12T14:03:12;99827.81;;;31.54;nan
55685;BME280;41883;49.544;8.646;2023-09-12T14:05:37;99822.53;;;31.58;nan
55685;BME280;41883;49.544;8.646;2023-09-12T14:08:03;99823.03;;;31.60;nan
55685;BME280;41883;49.544;8.646;2023-09-12T14:10:28;99826.03;;;31.36;nan
55685;BME280;41883;49.544;8.646;2023-09-12T14:12:53;99829.16;;;31.29;nan
55685;BME280;41883;49.544;8.646;2023-09-12T14:15:18;99834.50;;;31.34;nan
55685;BME280;41883;49.544;8.646;2023-09-12T14:17:44;99824.00;;;31.41;nan
55685;BME280;41883;49.544;8.646;2023-09-12T14:20:09;99829.84;;;31.48;nan
55685;BME280;41883;49.544;8.646;2023-09-12T14:22:36;99814.47;;;31.52;nan
55685;BME280;41883;49.544;8.646;2023-09-12T14:25:01;99807.56;;;31.55;nan
55685;BME280;41883;49.544;8.646;2023-09-12T14:27:26;99810.63;;;31.53;nan
55685;BME280;41883;49.544;8.646;2023-09-12T14:29:52;99789.06;;;31.52;nan
55685;BME280;41883;49.544;8.646;2023-09-12T14:32:17;99804.97;;;31.36;nan
55685;BME280;41883;49.544;8.646;2023-09-12T14:34:42;99810.06;;;31.15;nan
55685;BME280;41883;49.544;8.646;2023-09-12T14:37:08;99805.22;;;31.12;nan
55685;BME280;41883;49.544;8.646;2023-09-12T14:39:33;99808.19;;;31.16;nan
55685;BME280;41883;49.544;8.646;2023-09-12T14:41:58;99804.59;;;31.15;nan
55685;BME280;41883;49.544;8.646;2023-09-12T14:44:24;99796.13;;;31.17;nan
55685;BME280;41883;49.544;8.646;2023-09-12T14:46:50;99806.03;;;31.13;nan
55685;BME280;41883;49.544;8.646;2023-09-12T14:49:15;99797.34;;;31.10;nan
55685;BME280;41883;49.544;8.646;2023-09-12T14:51:40;99794.53;;;31.16;nan
55685;BME280;41883;49.544;8.646;2023-09-12T14:54:06;99797.72;;;31.18;nan
55685;BME280;41883;49.544;8.646;2023-09-12T14:56:32;99787.31;;;31.20;nan
55685;BME280;41883;49.544;8.646;2023-09-12T14:58:57;99779.34;;;31.09;nan
55685;BME280;41883;49.544;8.646;2023-09-12T15:01:22;99782.81;;;31.01;nan
55685;BME280;41883;49.544;8.646;2023-09-12T15:03:49;99788.09;;;30.84;nan
55685;BME280;41883;49.544;8.646;2023-09-12T15:06:14;99783.72;;;30.83;nan
55685;BME280;41883;49.544;8.646;2023-09-12T15:08:40;99785.66;;;30.82;nan
55685;BME280;41883;49.544;8.646;2023-09-12T15:11:05;99788.09;;;30.84;nan
55685;BME280;41883;49.544;8.646;2023-09-12T15:13:30;99784.00;;;30.81;nan
55685;BME280;41883;49.544;8.646;2023-09-12T15:15:56;99782.41;;;30.80;nan
55685;BME280;41883;49.544;8.646;2023-09-12T15:18:21;99779.34;;;30.82;nan
55685;BME280;41883;49.544;8.646;2023-09-12T15:20:46;99785.94;;;30.81;nan
55685;BME280;41883;49.544;8.646;2023-09-12T15:23:11;99775.44;;;30.74;nan
55685;BME280;41883;49.544;8.646;2023-09-12T15:25:36;99769.66;;;30.76;nan
55685;BME280;41883;49.544;8.646;2023-09-12T15:28:02;99769.28;;;30.82;nan
55685;BME280;41883;49.544;8.646;2023-09-12T15:30:27;99758.34;;;30.82;nan
55685;BME280;41883;49.544;8.646;2023-09-12T15:32:52;99765.84;;;30.90;nan
55685;BME280;41883;49.544;8.646;2023-09-12T15:35:17;99764.28;;;30.98;nan
55685;BME280;41883;49.544;8.646;2023-09-12T15:37:43;99768.03;;;31.02;nan
55685;BME280;41883;49.544;8.646;2023-09-12T15:40:08;99766.09;;;31.03;nan
55685;BME280;41883;49.544;8.646;2023-09-12T15:42:33;99765.41;;;30.97;nan
55685;BME280;41883;49.544;8.646;2023-09-12T15:44:58;99754.00;;;30.95;nan
55685;BME280;41883;49.544;8.646;2023-09-12T15:47:24;99755.13;;;30.94;nan
55685;BME280;41883;49.544;8.646;2023-09-12T15:49:49;99753.09;;;30.86;nan
55685;BME280;41883;49.544;8.646;2023-09-12T15:52:14;99748.13;;;30.74;nan
55685;BME280;41883;49.544;8.646;2023-09-12T15:54:39;99753.91;;;30.73;nan
55685;BME280;41883;49.544;8.646;2023-09-12T15:57:05;99757.06;;;30.66;nan
55685;BME280;41883;49.544;8.646;2023-09-12T15:59:30;99754.84;;;30.54;nan
55685;BME280;41883;49.544;8.646;2023-09-12T16:01:56;99748.75;;;30.43;nan
55685;BME280;41883;49.544;8.646;2023-09-12T16:04:21;99745.03;;;30.39;nan
55685;BME280;41883;49.544;8.646;2023-09-12T16:06:47;99745.22;;;30.43;nan
55685;BME280;41883;49.544;8.646;2023-09-12T16:09:12;99745.75;;;30.45;nan
55685;BME280;41883;49.544;8.646;2023-09-12T16:11:37;99736.63;;;30.36;nan
55685;BME280;41883;49.544;8.646;2023-09-12T16:14:02;99747.66;;;30.31;nan
55685;BME280;41883;49.544;8.646;2023-09-12T16:16:28;99743.38;;;30.24;nan
55685;BME280;41883;49.544;8.646;2023-09-12T16:18:53;99741.34;;;30.16;nan